createdAt,value
2018-12-17T00:01:34.525Z,100208.25
2018-12-17T00:06:37.745Z,100213.09
2018-12-17T00:11:41.110Z,100211.14
2018-12-17T00:16:44.401Z,100202.03
2018-12-17T00:21:47.590Z,100195.09
2018-12-17T00:26:50.825Z,100212.45
2018-12-17T00:31:54.179Z,100214.89
2018-12-17T00:36:57.378Z,100209.76
2018-12-17T00:42:00.582Z,100215.56
2018-12-17T00:47:03.811Z,100220.96
2018-12-17T00:52:07.244Z,100218.53
2018-12-17T00:57:10.434Z,100216.95
2018-12-17T01:02:13.698Z,100223.25
2018-12-17T01:07:18.969Z,100232.96
2018-12-17T01:12:22.353Z,100235.11
2018-12-17T01:17:25.572Z,100252.09
2018-12-17T01:22:28.766Z,100264.05
2018-12-17T01:27:32.080Z,100258.46
2018-12-17T01:32:35.811Z,100259.89
2018-12-17T01:37:39.025Z,100263.37
2018-12-17T01:42:42.200Z,100275.23
2018-12-17T01:47:45.421Z,100272.55
2018-12-17T01:52:48.678Z,100277.09
2018-12-17T01:57:51.951Z,100274.61
2018-12-17T02:02:55.217Z,100272.81
2018-12-17T02:07:58.433Z,100268.62
2018-12-17T02:13:01.597Z,100273.44
2018-12-17T02:18:04.836Z,100284.58
2018-12-17T02:23:08.021Z,100287.95
2018-12-17T02:28:11.185Z,100280.27
2018-12-17T02:33:14.502Z,100285.38
2018-12-17T02:38:17.826Z,100290.77
2018-12-17T02:43:21.010Z,100287.63
2018-12-17T02:48:24.213Z,100291.03
2018-12-17T02:53:27.490Z,100296.55
2018-12-17T02:58:30.667Z,100296.06
2018-12-17T03:03:33.866Z,100311.00
2018-12-17T03:08:37.100Z,100312.27
2018-12-17T03:13:40.270Z,100317.58
2018-12-17T03:18:43.501Z,100323.53
2018-12-17T03:23:46.737Z,100330.55
2018-12-17T03:28:51.965Z,100331.92
2018-12-17T03:33:55.105Z,100338.00
2018-12-17T03:38:58.309Z,100338.14
2018-12-17T03:44:01.481Z,100342.35
2018-12-17T03:49:04.729Z,100341.75
2018-12-17T03:54:07.915Z,100345.28
2018-12-17T03:59:11.107Z,100353.23
2018-12-17T04:04:14.316Z,100352.69
2018-12-17T04:09:17.552Z,100356.97
2018-12-17T04:14:20.736Z,100363.66
2018-12-17T04:19:23.946Z,100365.11
2018-12-17T04:24:27.312Z,100374.34
2018-12-17T04:29:30.492Z,100382.33
2018-12-17T04:34:33.690Z,100391.38
2018-12-17T04:39:36.990Z,100392.27
2018-12-17T04:44:40.198Z,100393.25
2018-12-17T04:49:43.369Z,100398.38
2018-12-17T04:54:46.609Z,100406.79
2018-12-17T04:59:49.837Z,100406.58
2018-12-17T05:04:53.109Z,100409.95
2018-12-17T05:09:56.433Z,100414.96
2018-12-17T05:14:59.709Z,100426.36
2018-12-17T05:20:03.048Z,100435.00
2018-12-17T05:25:06.914Z,100443.78
2018-12-17T05:30:10.305Z,100456.44
2018-12-17T05:35:13.553Z,100460.39
2018-12-17T05:40:16.721Z,100464.04
2018-12-17T05:45:19.937Z,100467.01
2018-12-17T05:50:23.133Z,100479.88
2018-12-17T05:55:26.337Z,100476.48
2018-12-17T06:00:30.177Z,100479.41
2018-12-17T06:05:33.357Z,100485.26
2018-12-17T06:10:36.576Z,100491.42
2018-12-17T06:15:39.797Z,100502.62
2018-12-17T06:20:43.242Z,100509.75
2018-12-17T06:25:46.485Z,100510.09
2018-12-17T06:30:49.674Z,100520.27
2018-12-17T06:35:53.002Z,100520.20
2018-12-17T06:40:56.187Z,100520.28
2018-12-17T06:45:59.358Z,100522.15
2018-12-17T06:51:02.673Z,100522.98
2018-12-17T06:56:05.918Z,100528.30
2018-12-17T07:01:09.166Z,100526.98
2018-12-17T07:06:12.387Z,100534.31
2018-12-17T07:11:15.626Z,100532.34
2018-12-17T07:16:18.858Z,100536.72
2018-12-17T07:21:22.021Z,100559.17
2018-12-17T07:26:25.250Z,100566.51
2018-12-17T07:31:28.545Z,100563.25
2018-12-17T07:36:31.738Z,100570.84
2018-12-17T07:41:34.917Z,100576.53
2018-12-17T07:46:38.113Z,100590.30
2018-12-17T07:51:41.270Z,100592.98
2018-12-17T07:56:44.509Z,100603.15
2018-12-17T08:01:47.664Z,100608.89
2018-12-17T08:06:51.105Z,100611.27
2018-12-17T08:11:54.304Z,100627.86
2018-12-17T08:16:57.801Z,100634.14
2018-12-17T08:22:01.019Z,100645.41
2018-12-17T08:27:04.273Z,100649.36
2018-12-17T08:32:07.575Z,100649.25
2018-12-17T08:37:10.757Z,100652.10
2018-12-17T08:42:14.029Z,100658.07
2018-12-17T08:47:17.211Z,100666.02
2018-12-17T08:52:20.393Z,100661.47
2018-12-17T08:57:23.568Z,100673.65
2018-12-17T09:02:26.813Z,100662.77
2018-12-17T09:07:30.065Z,100674.33
2018-12-17T09:12:33.262Z,100679.61
2018-12-17T09:17:36.430Z,100684.17
2018-12-17T09:22:39.725Z,100680.86
2018-12-17T09:27:42.949Z,100685.98
2018-12-17T09:32:46.125Z,100690.77
2018-12-17T09:37:49.305Z,100701.28
2018-12-17T09:42:52.465Z,100702.94
2018-12-17T09:47:55.638Z,100712.72
2018-12-17T09:52:58.806Z,100708.20
2018-12-17T09:58:02.001Z,100706.38
2018-12-17T10:03:05.265Z,100706.86
2018-12-17T10:08:08.441Z,100692.62
2018-12-17T10:13:11.677Z,100689.59
2018-12-17T10:18:14.855Z,100695.48
2018-12-17T10:23:18.046Z,100680.70
2018-12-17T10:28:21.225Z,100676.33
2018-12-17T10:33:24.394Z,100680.56
2018-12-17T10:38:27.558Z,100680.81
2018-12-17T10:43:30.907Z,100690.97
2018-12-17T10:48:34.173Z,100683.10
2018-12-17T10:53:37.334Z,100681.35
2018-12-17T10:58:40.546Z,100678.59
2018-12-17T11:03:48.293Z,100678.75
2018-12-17T11:08:51.650Z,100664.36
2018-12-17T11:13:54.941Z,100674.70
2018-12-17T11:18:58.997Z,100675.80
2018-12-17T11:24:03.285Z,100683.06
2018-12-17T11:29:06.561Z,100688.64
2018-12-17T11:34:09.783Z,100692.92
2018-12-17T11:39:12.948Z,100684.87
2018-12-17T11:44:16.187Z,100681.19
2018-12-17T11:49:19.485Z,100679.27
2018-12-17T11:54:22.850Z,100680.47
2018-12-17T11:59:26.130Z,100673.36
2018-12-17T12:04:29.303Z,100677.77
2018-12-17T12:09:36.839Z,100679.20
2018-12-17T12:14:40.053Z,100688.59
2018-12-17T12:19:43.324Z,100681.53
2018-12-17T12:24:46.497Z,100692.99
2018-12-17T12:29:50.085Z,100689.77
2018-12-17T12:34:53.249Z,100692.97
2018-12-17T12:39:56.454Z,100693.20
2018-12-17T12:44:59.639Z,100692.02
2018-12-17T12:50:02.887Z,100695.35
2018-12-17T12:55:06.258Z,100700.63
2018-12-17T13:00:13.245Z,100702.54
2018-12-17T13:05:16.514Z,100705.52
2018-12-17T13:10:19.673Z,100700.67
2018-12-17T13:15:22.834Z,100697.70
2018-12-17T13:20:26.013Z,100704.41
2018-12-17T13:25:33.554Z,100702.56
2018-12-17T13:30:36.809Z,100699.16
2018-12-17T13:35:39.978Z,100705.03
2018-12-17T13:40:43.166Z,100717.66
2018-12-17T13:45:46.358Z,100715.00
2018-12-17T13:50:51.713Z,100726.72
2018-12-17T13:55:54.887Z,100730.19
2018-12-17T14:00:58.062Z,100734.19
2018-12-17T14:06:01.229Z,100727.20
2018-12-17T14:11:04.554Z,100732.92
2018-12-17T14:16:13.529Z,100736.38
2018-12-17T14:21:22.194Z,100728.78
2018-12-17T14:26:25.370Z,100743.73
2018-12-17T14:31:28.893Z,100751.84
2018-12-17T14:36:32.326Z,100758.08
2018-12-17T14:41:35.562Z,100757.34
2018-12-17T14:46:44.314Z,100768.47
2018-12-17T14:51:47.557Z,100770.18
2018-12-17T14:56:50.820Z,100774.78
2018-12-17T15:01:54.000Z,100779.58
2018-12-17T15:06:58.146Z,100784.45
2018-12-17T15:12:01.419Z,100794.09
2018-12-17T15:17:04.669Z,100794.81
2018-12-17T15:22:07.834Z,100794.52
2018-12-17T15:27:11.017Z,100808.33
2018-12-17T15:32:14.309Z,100815.41
2018-12-17T15:37:17.637Z,100818.87
2018-12-17T15:42:21.956Z,100826.70
2018-12-17T15:47:25.483Z,100831.62
2018-12-17T15:52:28.664Z,100837.04
2018-12-17T15:57:31.865Z,100830.65
2018-12-17T16:02:35.028Z,100827.73
2018-12-17T16:07:38.230Z,100824.77
2018-12-17T16:12:41.429Z,100835.11
2018-12-17T16:17:44.619Z,100835.64
2018-12-17T16:22:47.804Z,100846.13
2018-12-17T16:27:50.981Z,100860.48
2018-12-17T16:32:54.225Z,100868.31
2018-12-17T16:37:57.410Z,100872.80
2018-12-17T16:43:00.613Z,100877.59
2018-12-17T16:48:04.006Z,100886.69
2018-12-17T16:53:07.238Z,100891.81
2018-12-17T16:58:10.494Z,100892.64
2018-12-17T17:03:13.699Z,100896.53
2018-12-17T17:08:16.894Z,100904.78
2018-12-17T17:13:20.081Z,100908.13
2018-12-17T17:18:23.272Z,100909.91
2018-12-17T17:23:26.466Z,100919.91
2018-12-17T17:28:29.638Z,100918.61
2018-12-17T17:33:32.851Z,100924.94
2018-12-17T17:38:36.067Z,100929.65
2018-12-17T17:43:39.437Z,100937.22
2018-12-17T17:48:42.600Z,100940.00
2018-12-17T17:53:45.773Z,100938.26
2018-12-17T17:58:48.978Z,100944.94
2018-12-17T18:03:52.154Z,100954.16
2018-12-17T18:08:55.333Z,100957.72
2018-12-17T18:13:58.497Z,100963.05
2018-12-17T18:19:01.737Z,100964.07
2018-12-17T18:24:04.927Z,100967.34
2018-12-17T18:29:08.098Z,100984.04
2018-12-17T18:34:11.257Z,100989.85
2018-12-17T18:39:14.656Z,101001.99
2018-12-17T18:44:18.015Z,101009.70
2018-12-17T18:49:21.266Z,101017.49
2018-12-17T18:54:24.490Z,101020.41
2018-12-17T18:59:27.667Z,101025.05
2018-12-17T19:04:30.833Z,101025.81
2018-12-17T19:09:34.085Z,101031.58
2018-12-17T19:14:37.271Z,101036.11
2018-12-17T19:19:40.451Z,101043.53
2018-12-17T19:24:43.638Z,101041.58
2018-12-17T19:29:46.821Z,101040.89
2018-12-17T19:34:50.085Z,101048.95
2018-12-17T19:39:53.251Z,101056.14
2018-12-17T19:44:56.414Z,101061.21
2018-12-17T19:49:59.689Z,101062.95
2018-12-17T19:55:02.866Z,101059.48
2018-12-17T20:00:06.979Z,101061.03
2018-12-17T20:05:10.414Z,101069.70
2018-12-17T20:10:19.138Z,101066.86
2018-12-17T20:15:22.434Z,101078.23
2018-12-17T20:20:25.769Z,101077.40
2018-12-17T20:25:28.969Z,101081.30
2018-12-17T20:30:32.154Z,101086.90
2018-12-17T20:35:35.381Z,101085.09
2018-12-17T20:40:38.541Z,101082.86
2018-12-17T20:45:41.787Z,101085.73
2018-12-17T20:50:44.980Z,101091.48
2018-12-17T20:55:48.158Z,101086.33
2018-12-17T21:00:51.409Z,101088.34
2018-12-17T21:05:54.655Z,101096.82
2018-12-17T21:10:57.869Z,101093.12
2018-12-17T21:16:01.065Z,101099.80
2018-12-17T21:21:04.237Z,101108.45
2018-12-17T21:26:07.446Z,101107.63
2018-12-17T21:31:10.616Z,101098.02
2018-12-17T21:36:13.805Z,101098.11
2018-12-17T21:41:16.987Z,101101.72
2018-12-17T21:46:20.277Z,101105.33
2018-12-17T21:51:23.482Z,101116.47
2018-12-17T21:56:26.655Z,101119.69
2018-12-17T22:01:29.863Z,101122.38
2018-12-17T22:06:33.093Z,101121.41
2018-12-17T22:11:36.565Z,101133.80
2018-12-17T22:16:39.777Z,101143.31
2018-12-17T22:21:43.050Z,101138.34
2018-12-17T22:26:46.242Z,101148.69
2018-12-17T22:31:49.551Z,101150.64
2018-12-17T22:36:52.783Z,101143.91
2018-12-17T22:41:55.973Z,101144.25
2018-12-17T22:46:59.157Z,101140.58
2018-12-17T22:52:02.365Z,101142.49
2018-12-17T22:57:05.699Z,101139.56
2018-12-17T23:02:08.983Z,101141.31
2018-12-17T23:07:12.419Z,101149.42
2018-12-17T23:12:26.899Z,101154.59
2018-12-17T23:17:41.349Z,101157.09
2018-12-17T23:22:44.589Z,101152.20
2018-12-17T23:27:50.048Z,101146.15
2018-12-17T23:32:53.361Z,101153.18
2018-12-17T23:37:56.644Z,101152.69
2018-12-17T23:42:59.833Z,101144.39
2018-12-17T23:53:40.490Z,101155.03
2018-12-17T23:58:43.818Z,101149.22
